createdAt,value
2023-06-10T00:01:08.305Z,10.60
2023-06-10T00:03:56.216Z,10.60
2023-06-10T00:06:25.585Z,10.80
2023-06-10T00:08:53.593Z,10.70
2023-06-10T00:11:22.778Z,10.10
2023-06-10T00:13:51.076Z,10.40
2023-06-10T00:16:19.961Z,10.30
2023-06-10T00:18:48.462Z,11.10
2023-06-10T00:21:16.625Z,10.90
2023-06-10T00:23:44.819Z,11.10
2023-06-10T00:26:12.706Z,11.10
2023-06-10T00:28:40.628Z,11.40
2023-06-10T00:31:08.584Z,11.50
2023-06-10T00:33:36.761Z,12.20
2023-06-10T00:36:05.036Z,12.60
2023-06-10T00:38:33.260Z,12.80
2023-06-10T00:41:01.624Z,11.90
2023-06-10T00:43:29.381Z,12.20
2023-06-10T00:45:57.821Z,12.20
2023-06-10T00:48:26.423Z,11.80
2023-06-10T00:50:54.663Z,12.20
2023-06-10T00:53:23.998Z,12.20
2023-06-10T00:55:51.870Z,12.50
2023-06-10T00:58:20.308Z,11.50
2023-06-10T01:00:48.343Z,12.10
2023-06-10T01:03:18.532Z,12.60
2023-06-10T01:05:56.432Z,13.30
2023-06-10T01:08:42.999Z,12.70
2023-06-10T01:11:20.368Z,13.20
2023-06-10T01:13:52.398Z,14.00
2023-06-10T01:16:21.682Z,13.40
2023-06-10T01:18:49.453Z,13.40
2023-06-10T01:21:27.494Z,12.90
2023-06-10T01:23:56.882Z,12.50
2023-06-10T01:26:30.462Z,12.30
2023-06-10T01:29:07.337Z,12.10
2023-06-10T01:32:05.156Z,13.10
2023-06-10T01:34:33.962Z,12.50
2023-06-10T01:37:04.943Z,12.20
2023-06-10T01:39:33.698Z,12.30
2023-06-10T01:42:03.470Z,11.20
2023-06-10T01:44:31.303Z,11.30
2023-06-10T01:46:59.279Z,12.00
2023-06-10T01:49:28.059Z,11.20
2023-06-10T01:51:55.927Z,11.10
2023-06-10T01:54:23.706Z,10.70
2023-06-10T01:56:51.607Z,11.20
2023-06-10T01:59:19.350Z,10.50
2023-06-10T02:01:47.430Z,11.80
2023-06-10T02:04:15.905Z,10.30
2023-06-10T02:06:43.751Z,11.10
2023-06-10T02:09:11.678Z,10.60
2023-06-10T02:11:39.473Z,11.00
2023-06-10T02:14:07.226Z,10.10
2023-06-10T02:16:35.130Z,10.60
2023-06-10T02:19:06.993Z,11.10
2023-06-10T02:21:35.571Z,10.60
2023-06-10T02:24:04.210Z,10.00
2023-06-10T02:26:32.963Z,10.90
2023-06-10T02:29:01.042Z,11.60
2023-06-10T02:31:30.023Z,11.00
2023-06-10T02:33:58.103Z,10.00
2023-06-10T02:36:29.203Z,9.90
2023-06-10T02:38:57.092Z,10.50
2023-06-10T02:41:26.211Z,10.20
2023-06-10T02:43:54.054Z,10.00
2023-06-10T02:46:22.317Z,10.60
2023-06-10T02:48:52.914Z,11.10
2023-06-10T02:51:20.774Z,11.30
2023-06-10T02:53:48.672Z,10.60
2023-06-10T02:56:19.950Z,10.30
2023-06-10T02:58:48.030Z,10.70
2023-06-10T03:01:16.320Z,10.30
2023-06-10T03:03:44.262Z,10.30
2023-06-10T03:06:12.134Z,10.90
2023-06-10T03:08:41.349Z,10.90
2023-06-10T03:11:09.560Z,11.00
2023-06-10T03:13:37.419Z,11.20
2023-06-10T03:16:05.762Z,10.90
2023-06-10T03:18:33.837Z,10.50
2023-06-10T03:21:01.689Z,10.80
2023-06-10T03:23:30.155Z,12.90
2023-06-10T03:25:57.990Z,11.20
2023-06-10T03:28:25.755Z,10.50
2023-06-10T03:30:53.603Z,10.20
2023-06-10T03:33:21.540Z,11.10
2023-06-10T03:35:49.416Z,11.30
2023-06-10T03:38:17.598Z,9.70
2023-06-10T03:40:45.484Z,10.30
2023-06-10T03:43:13.232Z,9.80
2023-06-10T03:45:42.237Z,10.00
2023-06-10T03:48:10.442Z,10.30
2023-06-10T03:50:38.439Z,10.70
2023-06-10T03:53:06.221Z,10.60
2023-06-10T03:55:34.358Z,9.80
2023-06-10T03:58:02.295Z,10.00
2023-06-10T04:00:31.103Z,9.60
2023-06-10T04:02:59.691Z,9.40
2023-06-10T04:05:29.692Z,9.80
2023-06-10T04:07:58.036Z,9.80
2023-06-10T04:10:26.427Z,9.70
2023-06-10T04:12:54.277Z,9.50
2023-06-10T04:15:22.689Z,9.40
2023-06-10T04:17:50.596Z,9.60
2023-06-10T04:20:18.452Z,9.50
2023-06-10T04:22:46.353Z,9.70
2023-06-10T04:25:14.116Z,9.80
2023-06-10T04:27:41.981Z,8.60
2023-06-10T04:30:10.704Z,10.50
2023-06-10T04:32:38.716Z,9.10
2023-06-10T04:35:07.589Z,10.10
2023-06-10T04:37:35.800Z,9.50
2023-06-10T04:40:04.394Z,9.50
2023-06-10T04:42:32.187Z,9.20
2023-06-10T04:44:59.962Z,9.60
2023-06-10T04:47:27.990Z,11.60
2023-06-10T04:49:56.287Z,12.30
2023-06-10T04:52:25.545Z,12.80
2023-06-10T04:54:53.712Z,13.10
2023-06-10T04:57:22.268Z,12.60
2023-06-10T04:59:50.140Z,13.00
2023-06-10T05:02:18.363Z,12.40
2023-06-10T05:04:46.429Z,12.40
2023-06-10T05:07:14.429Z,12.10
2023-06-10T05:09:42.444Z,11.30
2023-06-10T05:12:10.573Z,12.40
2023-06-10T05:14:38.471Z,11.90
2023-06-10T05:17:07.334Z,11.70
2023-06-10T05:19:36.855Z,12.50
2023-06-10T05:22:05.119Z,16.00
2023-06-10T05:24:33.028Z,15.60
2023-06-10T05:27:01.138Z,14.10
2023-06-10T05:29:29.046Z,14.20
2023-06-10T05:31:58.802Z,14.80
2023-06-10T05:34:26.848Z,14.70
2023-06-10T05:36:54.721Z,15.70
2023-06-10T05:39:22.573Z,16.20
2023-06-10T05:41:50.538Z,16.10
2023-06-10T05:44:18.470Z,16.00
2023-06-10T05:46:46.446Z,17.40
2023-06-10T05:49:14.541Z,19.00
2023-06-10T05:51:42.636Z,16.90
2023-06-10T05:54:10.623Z,17.90
2023-06-10T05:56:38.473Z,17.20
2023-06-10T05:59:06.410Z,18.90
2023-06-10T06:01:34.510Z,21.00
2023-06-10T06:04:02.325Z,20.80
2023-06-10T06:06:30.135Z,21.50
2023-06-10T06:08:58.395Z,22.50
2023-06-10T06:11:27.502Z,23.90
2023-06-10T06:13:55.445Z,27.10
2023-06-10T06:16:23.496Z,31.40
2023-06-10T06:18:51.579Z,32.10
2023-06-10T06:21:19.411Z,33.50
2023-06-10T06:23:47.497Z,31.60
2023-06-10T06:26:15.508Z,30.00
2023-06-10T06:28:44.185Z,30.00
2023-06-10T06:31:12.285Z,28.30
2023-06-10T06:33:40.167Z,31.50
2023-06-10T06:36:08.159Z,30.70
2023-06-10T06:38:36.012Z,30.00
2023-06-10T06:41:06.297Z,30.30
2023-06-10T06:43:34.439Z,31.40
2023-06-10T06:46:02.460Z,27.40
2023-06-10T06:48:30.773Z,26.50
2023-06-10T06:50:59.581Z,27.50
2023-06-10T06:53:30.114Z,25.40
2023-06-10T06:55:59.826Z,22.30
2023-06-10T06:58:27.748Z,19.90
2023-06-10T07:00:55.753Z,20.10
2023-06-10T07:03:23.660Z,21.60
2023-06-10T07:05:51.658Z,21.90
2023-06-10T07:08:19.664Z,17.00
2023-06-10T07:10:47.669Z,17.40
2023-06-10T07:13:16.026Z,15.60
2023-06-10T07:15:43.900Z,15.70
2023-06-10T07:18:11.860Z,17.30
2023-06-10T07:20:39.765Z,17.20
2023-06-10T07:23:07.898Z,16.60
2023-06-10T07:25:36.047Z,14.40
2023-06-10T07:28:04.413Z,14.20
2023-06-10T07:30:32.269Z,13.70
2023-06-10T07:33:00.437Z,13.00
2023-06-10T07:35:28.683Z,13.40
2023-06-10T07:37:56.514Z,12.20
2023-06-10T07:40:25.238Z,13.40
2023-06-10T07:42:54.072Z,13.90
2023-06-10T07:45:22.111Z,12.50
2023-06-10T07:47:49.948Z,10.70
2023-06-10T07:50:17.877Z,9.10
2023-06-10T07:52:45.741Z,9.60
2023-06-10T07:55:13.786Z,9.40
2023-06-10T07:57:42.033Z,8.30
2023-06-10T08:00:10.914Z,7.70
2023-06-10T08:02:38.858Z,8.90
2023-06-10T08:05:07.642Z,8.80
2023-06-10T08:07:35.688Z,8.10
2023-06-10T08:10:05.207Z,7.90
2023-06-10T08:12:33.791Z,8.00
2023-06-10T08:15:02.461Z,8.00
2023-06-10T08:17:30.910Z,8.20
2023-06-10T08:19:58.760Z,7.90
2023-06-10T08:22:30.493Z,7.80
2023-06-10T08:24:58.515Z,8.00
2023-06-10T08:27:26.567Z,7.20
2023-06-10T08:30:03.344Z,7.90
2023-06-10T08:32:31.306Z,7.60
2023-06-10T08:34:59.022Z,7.00
2023-06-10T08:37:26.977Z,6.90
2023-06-10T08:39:55.113Z,6.80
2023-06-10T08:42:28.135Z,6.90
2023-06-10T08:44:57.429Z,7.20
2023-06-10T08:47:26.671Z,6.10
2023-06-10T08:49:57.865Z,6.90
2023-06-10T08:52:27.560Z,6.40
2023-06-10T08:55:03.943Z,6.10
2023-06-10T08:57:32.304Z,6.50
2023-06-10T09:00:01.133Z,5.70
2023-06-10T09:02:29.465Z,6.20
2023-06-10T09:04:58.576Z,5.60
2023-06-10T09:07:27.118Z,6.20
2023-06-10T09:09:56.053Z,5.90
2023-06-10T09:12:24.103Z,5.80
2023-06-10T09:14:52.074Z,5.20
2023-06-10T09:17:20.081Z,5.50
2023-06-10T09:19:48.821Z,5.60
2023-06-10T09:22:16.867Z,5.30
2023-06-10T09:24:44.802Z,5.10
2023-06-10T09:27:12.718Z,5.20
2023-06-10T09:29:53.845Z,5.70
2023-06-10T09:32:22.969Z,5.50
2023-06-10T09:34:52.304Z,5.90
2023-06-10T09:37:24.977Z,5.80
2023-06-10T09:40:04.256Z,5.30
2023-06-10T09:42:36.509Z,5.20
2023-06-10T09:45:05.810Z,5.50
2023-06-10T09:47:33.950Z,5.80
2023-06-10T09:50:02.898Z,6.10
2023-06-10T09:52:31.131Z,6.10
2023-06-10T09:55:03.210Z,4.90
2023-06-10T09:57:37.514Z,6.20
2023-06-10T10:00:15.478Z,5.30
2023-06-10T10:02:48.540Z,5.20
2023-06-10T10:07:46.985Z,5.00
2023-06-10T10:10:16.886Z,5.20
2023-06-10T10:12:49.194Z,5.20
2023-06-10T10:15:18.772Z,5.40
2023-06-10T10:18:08.742Z,5.20
2023-06-10T10:20:47.860Z,5.80
2023-06-10T10:23:22.720Z,5.30
2023-06-10T10:25:53.448Z,5.60
2023-06-10T10:28:25.588Z,5.90
2023-06-10T10:30:58.461Z,5.60
2023-06-10T10:33:36.319Z,5.70
2023-06-10T10:36:04.830Z,6.10
2023-06-10T10:38:33.329Z,6.00
2023-06-10T10:41:02.717Z,6.40
2023-06-10T10:43:31.704Z,6.70
2023-06-10T10:46:01.973Z,6.00
2023-06-10T10:48:39.479Z,6.00
2023-06-10T10:51:09.342Z,7.10
2023-06-10T10:53:40.998Z,7.00
2023-06-10T10:56:14.772Z,6.40
2023-06-10T10:58:42.833Z,6.40
2023-06-10T11:01:16.108Z,5.90
2023-06-10T11:03:48.670Z,6.40
2023-06-10T11:06:19.357Z,6.00
2023-06-10T11:08:48.935Z,6.40
2023-06-10T11:11:26.918Z,6.90
2023-06-10T11:14:07.769Z,6.70
2023-06-10T11:16:43.456Z,6.60
2023-06-10T11:19:11.478Z,7.00
2023-06-10T11:22:00.241Z,7.30
2023-06-10T11:24:31.107Z,6.50
2023-06-10T11:27:25.504Z,7.20
2023-06-10T11:30:08.753Z,6.90
2023-06-10T11:32:36.958Z,7.20
2023-06-10T11:35:05.827Z,8.60
2023-06-10T11:37:33.915Z,8.60
2023-06-10T11:40:03.180Z,9.90
2023-06-10T11:42:31.569Z,7.90
2023-06-10T11:44:59.682Z,8.50
2023-06-10T11:47:28.107Z,9.00
2023-06-10T11:49:59.816Z,7.50
2023-06-10T11:52:39.178Z,8.90
2023-06-10T11:55:10.940Z,8.90
2023-06-10T11:57:39.382Z,8.40
2023-06-10T12:00:08.557Z,7.40
2023-06-10T12:02:36.616Z,7.90
2023-06-10T12:05:14.401Z,8.10
2023-06-10T12:07:42.524Z,7.50
2023-06-10T12:10:26.390Z,7.60
2023-06-10T12:12:54.586Z,7.30
2023-06-10T12:15:26.664Z,8.40
2023-06-10T12:17:54.585Z,7.00
2023-06-10T12:20:31.769Z,7.00
2023-06-10T12:23:01.435Z,8.10
2023-06-10T12:25:30.241Z,7.40
2023-06-10T12:27:59.306Z,7.70
2023-06-10T12:30:28.440Z,7.00
2023-06-10T12:32:57.813Z,5.90
2023-06-10T12:35:28.716Z,6.90
2023-06-10T12:38:02.258Z,6.70
2023-06-10T12:40:36.222Z,6.70
2023-06-10T12:43:04.673Z,6.40
2023-06-10T12:45:36.448Z,7.20
2023-06-10T12:48:10.932Z,7.40
2023-06-10T12:50:42.577Z,6.80
2023-06-10T12:53:15.860Z,9.30
2023-06-10T12:55:46.307Z,7.40
2023-06-10T12:58:14.618Z,7.70
2023-06-10T13:00:43.552Z,7.00
2023-06-10T13:03:11.884Z,6.60
2023-06-10T13:05:40.206Z,6.70
2023-06-10T13:08:11.146Z,6.60
2023-06-10T13:10:39.747Z,7.10
2023-06-10T13:13:10.768Z,7.10
2023-06-10T13:15:43.157Z,7.50
2023-06-10T13:18:12.252Z,6.10
2023-06-10T13:20:40.597Z,6.30
2023-06-10T13:23:08.613Z,6.90
2023-06-10T13:25:36.441Z,5.90
2023-06-10T13:28:04.452Z,6.10
2023-06-10T13:30:32.411Z,6.00
2023-06-10T13:33:00.592Z,6.20
2023-06-10T13:35:28.590Z,6.50
2023-06-10T13:37:57.016Z,6.90
2023-06-10T13:40:25.457Z,6.10
2023-06-10T13:42:55.318Z,6.20
2023-06-10T13:45:23.592Z,6.10
2023-06-10T13:47:51.972Z,6.00
2023-06-10T13:50:19.952Z,5.80
2023-06-10T13:52:48.235Z,5.60
2023-06-10T13:55:20.075Z,5.40
2023-06-10T13:57:47.964Z,5.40
2023-06-10T14:00:16.456Z,5.80
2023-06-10T14:02:44.480Z,5.40
2023-06-10T14:05:12.570Z,6.00
2023-06-10T14:07:41.900Z,5.60
2023-06-10T14:10:10.558Z,6.00
2023-06-10T14:12:38.680Z,6.60
2023-06-10T14:15:07.229Z,5.70
2023-06-10T14:17:35.407Z,6.50
2023-06-10T14:20:03.532Z,6.10
2023-06-10T14:22:31.624Z,6.10
2023-06-10T14:24:59.615Z,6.30
2023-06-10T14:27:27.418Z,6.90
2023-06-10T14:29:55.385Z,6.70
2023-06-10T14:32:23.345Z,6.60
2023-06-10T14:34:52.025Z,6.60
2023-06-10T14:37:19.962Z,6.40
2023-06-10T14:39:48.163Z,6.70
2023-06-10T14:42:16.216Z,6.40
2023-06-10T14:44:44.125Z,6.20
2023-06-10T14:47:11.969Z,6.00
2023-06-10T14:49:39.904Z,6.40
2023-06-10T14:52:08.110Z,5.60
2023-06-10T14:54:36.080Z,6.00
2023-06-10T14:57:04.211Z,6.10
2023-06-10T14:59:32.216Z,5.90
2023-06-10T15:02:01.879Z,6.50
2023-06-10T15:04:30.180Z,6.00
2023-06-10T15:06:58.142Z,6.40
2023-06-10T15:09:26.313Z,6.50
2023-06-10T15:11:54.275Z,6.90
2023-06-10T15:14:22.814Z,6.70
2023-06-10T15:16:50.864Z,6.20
2023-06-10T15:19:19.086Z,6.70
2023-06-10T15:21:47.202Z,6.20
2023-06-10T15:24:15.763Z,6.90
2023-06-10T15:26:43.946Z,6.60
2023-06-10T15:29:12.110Z,6.30
2023-06-10T15:31:39.977Z,6.20
2023-06-10T15:34:09.741Z,7.40
2023-06-10T15:36:37.951Z,6.70
2023-06-10T15:39:07.910Z,6.70
2023-06-10T15:41:36.361Z,7.50
2023-06-10T15:44:04.487Z,7.40
2023-06-10T15:46:32.905Z,7.00
2023-06-10T15:49:00.929Z,7.30
2023-06-10T15:51:29.010Z,7.60
2023-06-10T15:53:57.105Z,7.30
2023-06-10T15:56:26.157Z,6.70
2023-06-10T15:58:54.058Z,7.20
2023-06-10T16:01:22.070Z,7.10
2023-06-10T16:03:49.996Z,6.90
2023-06-10T16:06:18.161Z,6.10
2023-06-10T16:08:47.169Z,7.20
2023-06-10T16:11:15.187Z,6.50
2023-06-10T16:13:43.058Z,6.60
2023-06-10T16:16:11.231Z,7.40
2023-06-10T16:18:39.329Z,7.00
2023-06-10T16:21:07.290Z,6.80
2023-06-10T16:23:39.420Z,8.00
2023-06-10T16:26:07.718Z,9.10
2023-06-10T16:28:41.482Z,8.80
2023-06-10T16:31:11.611Z,7.80
2023-06-10T16:33:39.775Z,8.90
2023-06-10T16:36:07.812Z,8.80
2023-06-10T16:38:35.762Z,9.40
2023-06-10T16:41:03.537Z,9.20
2023-06-10T16:43:31.452Z,8.10
2023-06-10T16:45:59.592Z,8.30
2023-06-10T16:48:27.642Z,8.50
2023-06-10T16:50:55.646Z,8.60
2023-06-10T16:53:23.488Z,8.20
2023-06-10T16:55:51.288Z,8.50
2023-06-10T16:58:19.141Z,8.80
2023-06-10T17:00:47.296Z,7.40
2023-06-10T17:03:15.127Z,8.00
2023-06-10T17:05:43.632Z,7.60
2023-06-10T17:08:11.811Z,9.10
2023-06-10T17:10:39.926Z,10.50
2023-06-10T17:13:08.002Z,10.50
2023-06-10T17:15:36.360Z,11.50
2023-06-10T17:18:04.541Z,10.00
2023-06-10T17:20:33.714Z,10.80
2023-06-10T17:23:01.832Z,10.00
2023-06-10T17:25:29.722Z,10.10
2023-06-10T17:27:57.692Z,9.90
2023-06-10T17:30:26.007Z,10.30
2023-06-10T17:32:54.494Z,8.90
2023-06-10T17:35:22.448Z,8.50
2023-06-10T17:37:50.314Z,8.80
2023-06-10T17:40:18.497Z,9.10
2023-06-10T17:42:47.240Z,8.70
2023-06-10T17:45:15.586Z,8.20
2023-06-10T17:47:43.620Z,7.90
2023-06-10T17:50:11.606Z,8.80
2023-06-10T17:52:39.627Z,9.70
2023-06-10T17:55:08.041Z,9.40
2023-06-10T17:57:36.252Z,9.50
2023-06-10T18:00:04.670Z,10.00
2023-06-10T18:02:32.874Z,10.10
2023-06-10T18:05:01.106Z,9.80
2023-06-10T18:07:29.151Z,9.50
2023-06-10T18:09:57.060Z,9.40
2023-06-10T18:12:25.041Z,8.90
2023-06-10T18:14:53.132Z,9.30
2023-06-10T18:17:21.190Z,10.00
2023-06-10T18:19:49.027Z,10.70
2023-06-10T18:22:16.863Z,12.00
2023-06-10T18:24:44.787Z,12.70
2023-06-10T18:27:16.629Z,14.10
2023-06-10T18:29:45.009Z,15.40
2023-06-10T18:32:13.044Z,15.40
2023-06-10T18:34:41.359Z,13.70
2023-06-10T18:37:09.241Z,12.80
2023-06-10T18:39:37.189Z,11.90
2023-06-10T18:42:07.087Z,11.90
2023-06-10T18:44:35.184Z,12.00
2023-06-10T18:47:03.279Z,12.60
2023-06-10T18:49:31.355Z,12.60
2023-06-10T18:51:59.340Z,12.30
2023-06-10T18:54:27.556Z,12.60
2023-06-10T18:56:56.579Z,12.10
2023-06-10T18:59:25.239Z,12.20
2023-06-10T19:01:53.120Z,11.60
2023-06-10T19:04:20.981Z,12.40
2023-06-10T19:06:49.233Z,13.00
2023-06-10T19:09:17.388Z,13.70
2023-06-10T19:11:45.283Z,12.50
2023-06-10T19:14:13.246Z,13.50
2023-06-10T19:16:41.642Z,13.60
2023-06-10T19:19:09.527Z,13.70
2023-06-10T19:21:37.434Z,13.70
2023-06-10T19:24:05.832Z,15.50
2023-06-10T19:26:33.694Z,16.40
2023-06-10T19:29:03.211Z,14.30
2023-06-10T19:31:31.213Z,13.60
2023-06-10T19:33:59.214Z,13.40
2023-06-10T19:36:27.428Z,12.90
2023-06-10T19:38:55.592Z,12.70
2023-06-10T19:41:24.510Z,13.70
2023-06-10T19:43:52.441Z,12.30
2023-06-10T19:46:21.706Z,12.10
2023-06-10T19:48:50.166Z,13.00
2023-06-10T19:51:18.760Z,14.20
2023-06-10T19:53:47.886Z,13.10
2023-06-10T19:56:19.989Z,13.80
2023-06-10T19:58:52.421Z,13.00
2023-06-10T20:01:20.338Z,13.90
2023-06-10T20:03:48.902Z,12.50
2023-06-10T20:06:16.999Z,12.50
2023-06-10T20:08:44.936Z,11.90
2023-06-10T20:11:12.968Z,12.50
2023-06-10T20:13:41.179Z,13.80
2023-06-10T20:16:11.257Z,14.30
2023-06-10T20:18:39.453Z,13.80
2023-06-10T20:21:09.391Z,12.80
2023-06-10T20:23:37.226Z,12.30
2023-06-10T20:26:05.426Z,12.40
2023-06-10T20:28:33.350Z,11.70
2023-06-10T20:31:02.016Z,11.30
2023-06-10T20:33:30.665Z,11.50
2023-06-10T20:35:58.736Z,10.70
2023-06-10T20:38:26.819Z,10.20
2023-06-10T20:40:54.802Z,11.00
2023-06-10T20:43:22.711Z,12.00
2023-06-10T20:45:51.682Z,11.80
2023-06-10T20:48:19.880Z,12.30
2023-06-10T20:50:47.980Z,12.00
2023-06-10T20:53:16.054Z,12.50
2023-06-10T20:55:44.050Z,12.70
2023-06-10T20:58:11.981Z,12.60
2023-06-10T21:00:39.787Z,12.60
2023-06-10T21:03:08.311Z,12.70
2023-06-10T21:05:37.192Z,13.60
2023-06-10T21:08:05.668Z,12.80
2023-06-10T21:10:33.501Z,14.20
2023-06-10T21:13:01.354Z,12.40
2023-06-10T21:15:29.328Z,11.60
2023-06-10T21:17:57.202Z,11.00
2023-06-10T21:20:25.143Z,11.30
2023-06-10T21:22:53.250Z,15.30
2023-06-10T21:25:21.331Z,34.40
2023-06-10T21:27:49.765Z,30.60
2023-06-10T21:30:17.668Z,15.60
2023-06-10T21:32:46.190Z,14.80
2023-06-10T21:35:14.191Z,14.50
2023-06-10T21:37:42.149Z,10.90
2023-06-10T21:40:10.454Z,9.60
2023-06-10T21:42:38.392Z,9.70
2023-06-10T21:45:06.683Z,9.70
2023-06-10T21:47:34.600Z,9.80
2023-06-10T21:50:02.682Z,9.80
2023-06-10T21:52:31.532Z,10.30
2023-06-10T21:54:59.426Z,9.50
2023-06-10T21:57:27.358Z,9.90
2023-06-10T21:59:55.210Z,10.30
2023-06-10T22:02:23.658Z,9.50
2023-06-10T22:04:51.671Z,10.60
2023-06-10T22:07:19.552Z,10.00
2023-06-10T22:09:50.009Z,9.50
2023-06-10T22:12:18.389Z,10.50
2023-06-10T22:14:46.371Z,10.20
2023-06-10T22:17:14.444Z,10.10
2023-06-10T22:19:44.363Z,9.80
2023-06-10T22:22:12.290Z,9.80
2023-06-10T22:24:40.186Z,10.80
2023-06-10T22:27:09.435Z,10.30
2023-06-10T22:29:38.209Z,10.60
2023-06-10T22:32:07.146Z,10.20
2023-06-10T22:34:36.253Z,10.40
2023-06-10T22:37:04.253Z,10.50
2023-06-10T22:39:32.048Z,10.10
2023-06-10T22:41:59.857Z,10.30
2023-06-10T22:44:28.194Z,10.40
2023-06-10T22:46:55.995Z,10.30
2023-06-10T22:49:23.855Z,10.30
2023-06-10T22:51:51.734Z,10.40
2023-06-10T22:54:19.703Z,12.00
2023-06-10T22:56:47.525Z,10.50
2023-06-10T22:59:15.455Z,10.40
2023-06-10T23:01:43.461Z,11.70
2023-06-10T23:04:11.447Z,10.60
2023-06-10T23:06:39.575Z,11.30
2023-06-10T23:09:07.505Z,11.20
2023-06-10T23:11:35.413Z,10.70
2023-06-10T23:14:03.663Z,11.40
2023-06-10T23:16:31.636Z,10.20
2023-06-10T23:18:59.909Z,9.80
2023-06-10T23:21:34.658Z,10.10
2023-06-10T23:24:02.649Z,9.80
2023-06-10T23:26:33.055Z,9.60
2023-06-10T23:29:01.005Z,10.20
2023-06-10T23:31:29.148Z,9.60
2023-06-10T23:33:59.119Z,10.20
2023-06-10T23:36:26.943Z,9.90
2023-06-10T23:38:54.777Z,10.00
2023-06-10T23:41:22.572Z,10.20
2023-06-10T23:43:50.452Z,9.50
2023-06-10T23:46:18.624Z,9.80
2023-06-10T23:48:46.515Z,9.60
2023-06-10T23:51:14.526Z,10.10
2023-06-10T23:53:42.445Z,9.70
2023-06-10T23:56:10.533Z,10.70
2023-06-10T23:58:38.434Z,9.60
